sensor_id;sensor_type;location;lat;lon;timestamp;P1;durP1;ratioP1;P2;durP2;ratioP2
19593;SDS011;9944;48.240;16.478;2023-06-14T00:00:39;3.80;;;2.65;;
19593;SDS011;9944;48.240;16.478;2023-06-14T00:05:05;2.65;;;2.45;;
19593;SDS011;9944;48.240;16.478;2023-06-14T00:09:29;3.92;;;2.65;;
19593;SDS011;9944;48.240;16.478;2023-06-14T00:13:53;3.20;;;2.55;;
19593;SDS011;9944;48.240;16.478;2023-06-14T00:18:18;3.25;;;2.75;;
19593;SDS011;9944;48.240;16.478;2023-06-14T00:22:41;4.43;;;2.20;;
19593;SDS011;9944;48.240;16.478;2023-06-14T00:27:07;3.80;;;2.40;;
19593;SDS011;9944;48.240;16.478;2023-06-14T00:31:31;3.72;;;2.50;;
19593;SDS011;9944;48.240;16.478;2023-06-14T00:35:55;2.53;;;2.28;;
19593;SDS011;9944;48.240;16.478;2023-06-14T00:40:19;3.30;;;2.78;;
19593;SDS011;9944;48.240;16.478;2023-06-14T00:44:43;4.53;;;2.70;;
19593;SDS011;9944;48.240;16.478;2023-06-14T00:49:06;2.65;;;2.13;;
19593;SDS011;9944;48.240;16.478;2023-06-14T00:53:32;3.22;;;2.83;;
19593;SDS011;9944;48.240;16.478;2023-06-14T00:57:58;6.68;;;2.80;;
19593;SDS011;9944;48.240;16.478;2023-06-14T01:02:21;5.97;;;2.67;;
19593;SDS011;9944;48.240;16.478;2023-06-14T01:06:49;3.20;;;2.63;;
19593;SDS011;9944;48.240;16.478;2023-06-14T01:11:35;2.83;;;2.53;;
19593;SDS011;9944;48.240;16.478;2023-06-14T01:16:04;2.85;;;2.22;;
19593;SDS011;9944;48.240;16.478;2023-06-14T01:20:29;3.63;;;2.63;;
19593;SDS011;9944;48.240;16.478;2023-06-14T01:24:56;2.58;;;2.22;;
19593;SDS011;9944;48.240;16.478;2023-06-14T01:29:19;3.35;;;2.70;;
19593;SDS011;9944;48.240;16.478;2023-06-14T01:33:43;4.03;;;2.83;;
19593;SDS011;9944;48.240;16.478;2023-06-14T01:38:07;3.70;;;2.50;;
19593;SDS011;9944;48.240;16.478;2023-06-14T01:42:33;3.40;;;2.75;;
19593;SDS011;9944;48.240;16.478;2023-06-14T01:46:58;3.28;;;2.70;;
19593;SDS011;9944;48.240;16.478;2023-06-14T01:51:22;3.70;;;2.90;;
19593;SDS011;9944;48.240;16.478;2023-06-14T01:55:45;5.15;;;3.03;;
19593;SDS011;9944;48.240;16.478;2023-06-14T02:00:13;4.05;;;3.08;;
19593;SDS011;9944;48.240;16.478;2023-06-14T02:04:38;4.20;;;3.13;;
19593;SDS011;9944;48.240;16.478;2023-06-14T02:09:02;4.28;;;3.15;;
19593;SDS011;9944;48.240;16.478;2023-06-14T02:13:26;3.50;;;2.88;;
19593;SDS011;9944;48.240;16.478;2023-06-14T02:17:51;3.60;;;2.95;;
19593;SDS011;9944;48.240;16.478;2023-06-14T02:22:16;4.65;;;3.00;;
19593;SDS011;9944;48.240;16.478;2023-06-14T02:26:39;3.28;;;2.83;;
19593;SDS011;9944;48.240;16.478;2023-06-14T02:31:03;3.40;;;2.42;;
19593;SDS011;9944;48.240;16.478;2023-06-14T02:35:29;3.50;;;2.65;;
19593;SDS011;9944;48.240;16.478;2023-06-14T02:39:53;3.38;;;2.60;;
19593;SDS011;9944;48.240;16.478;2023-06-14T02:44:18;3.40;;;2.63;;
19593;SDS011;9944;48.240;16.478;2023-06-14T02:48:42;3.15;;;2.85;;
19593;SDS011;9944;48.240;16.478;2023-06-14T02:53:07;3.45;;;2.70;;
19593;SDS011;9944;48.240;16.478;2023-06-14T02:57:31;3.10;;;2.67;;
19593;SDS011;9944;48.240;16.478;2023-06-14T03:01:55;4.75;;;2.65;;
19593;SDS011;9944;48.240;16.478;2023-06-14T03:06:18;3.22;;;2.85;;
19593;SDS011;9944;48.240;16.478;2023-06-14T03:10:47;3.15;;;2.85;;
19593;SDS011;9944;48.240;16.478;2023-06-14T03:15:11;3.67;;;2.78;;
19593;SDS011;9944;48.240;16.478;2023-06-14T03:19:40;3.88;;;2.80;;
19593;SDS011;9944;48.240;16.478;2023-06-14T03:24:05;3.22;;;2.72;;
19593;SDS011;9944;48.240;16.478;2023-06-14T03:28:31;4.53;;;3.10;;
19593;SDS011;9944;48.240;16.478;2023-06-14T03:32:55;2.88;;;2.58;;
19593;SDS011;9944;48.240;16.478;2023-06-14T03:37:22;4.18;;;2.88;;
19593;SDS011;9944;48.240;16.478;2023-06-14T03:41:45;3.38;;;2.60;;
19593;SDS011;9944;48.240;16.478;2023-06-14T03:46:11;4.55;;;2.33;;
19593;SDS011;9944;48.240;16.478;2023-06-14T03:50:35;3.55;;;2.80;;
19593;SDS011;9944;48.240;16.478;2023-06-14T03:55:00;3.58;;;3.03;;
19593;SDS011;9944;48.240;16.478;2023-06-14T03:59:28;4.18;;;2.78;;
19593;SDS011;9944;48.240;16.478;2023-06-14T04:03:54;3.08;;;2.60;;
19593;SDS011;9944;48.240;16.478;2023-06-14T04:08:19;5.72;;;3.40;;
19593;SDS011;9944;48.240;16.478;2023-06-14T04:12:45;3.15;;;2.55;;
19593;SDS011;9944;48.240;16.478;2023-06-14T04:17:09;2.83;;;2.40;;
19593;SDS011;9944;48.240;16.478;2023-06-14T04:21:36;4.38;;;2.95;;
19593;SDS011;9944;48.240;16.478;2023-06-14T04:26:00;3.45;;;2.78;;
19593;SDS011;9944;48.240;16.478;2023-06-14T04:30:24;4.60;;;2.90;;
19593;SDS011;9944;48.240;16.478;2023-06-14T04:34:51;4.97;;;3.03;;
19593;SDS011;9944;48.240;16.478;2023-06-14T04:39:18;3.50;;;2.72;;
19593;SDS011;9944;48.240;16.478;2023-06-14T04:43:42;4.47;;;2.97;;
19593;SDS011;9944;48.240;16.478;2023-06-14T04:48:13;3.88;;;3.00;;
19593;SDS011;9944;48.240;16.478;2023-06-14T04:52:37;3.55;;;2.75;;
19593;SDS011;9944;48.240;16.478;2023-06-14T04:57:02;4.72;;;3.20;;
19593;SDS011;9944;48.240;16.478;2023-06-14T05:01:28;3.90;;;3.05;;
19593;SDS011;9944;48.240;16.478;2023-06-14T05:05:51;3.38;;;2.75;;
19593;SDS011;9944;48.240;16.478;2023-06-14T05:10:16;3.55;;;2.58;;
19593;SDS011;9944;48.240;16.478;2023-06-14T05:14:45;4.45;;;3.20;;
19593;SDS011;9944;48.240;16.478;2023-06-14T05:19:12;5.40;;;2.67;;
19593;SDS011;9944;48.240;16.478;2023-06-14T05:23:36;3.08;;;2.78;;
19593;SDS011;9944;48.240;16.478;2023-06-14T05:27:59;4.05;;;2.70;;
19593;SDS011;9944;48.240;16.478;2023-06-14T05:32:25;3.83;;;2.63;;
19593;SDS011;9944;48.240;16.478;2023-06-14T05:36:48;2.70;;;2.50;;
19593;SDS011;9944;48.240;16.478;2023-06-14T05:41:12;3.67;;;2.78;;
19593;SDS011;9944;48.240;16.478;2023-06-14T05:45:36;3.63;;;2.60;;
19593;SDS011;9944;48.240;16.478;2023-06-14T05:50:01;3.20;;;2.60;;
19593;SDS011;9944;48.240;16.478;2023-06-14T05:54:24;3.17;;;2.40;;
19593;SDS011;9944;48.240;16.478;2023-06-14T05:58:49;3.05;;;2.65;;
19593;SDS011;9944;48.240;16.478;2023-06-14T06:03:12;3.38;;;2.45;;
19593;SDS011;9944;48.240;16.478;2023-06-14T06:07:38;2.92;;;2.38;;
19593;SDS011;9944;48.240;16.478;2023-06-14T06:12:03;3.58;;;2.67;;
19593;SDS011;9944;48.240;16.478;2023-06-14T06:16:28;4.75;;;2.78;;
19593;SDS011;9944;48.240;16.478;2023-06-14T06:20:52;5.20;;;2.55;;
19593;SDS011;9944;48.240;16.478;2023-06-14T06:25:17;3.40;;;2.60;;
19593;SDS011;9944;48.240;16.478;2023-06-14T06:29:41;3.35;;;2.40;;
19593;SDS011;9944;48.240;16.478;2023-06-14T06:34:06;2.45;;;2.15;;
19593;SDS011;9944;48.240;16.478;2023-06-14T06:38:30;2.80;;;2.30;;
19593;SDS011;9944;48.240;16.478;2023-06-14T06:42:54;3.95;;;2.55;;
19593;SDS011;9944;48.240;16.478;2023-06-14T06:47:21;4.03;;;2.30;;
19593;SDS011;9944;48.240;16.478;2023-06-14T06:51:53;2.90;;;2.20;;
19593;SDS011;9944;48.240;16.478;2023-06-14T06:56:23;2.95;;;2.22;;
19593;SDS011;9944;48.240;16.478;2023-06-14T07:00:48;2.70;;;2.08;;
19593;SDS011;9944;48.240;16.478;2023-06-14T07:05:11;2.35;;;2.00;;
19593;SDS011;9944;48.240;16.478;2023-06-14T07:09:36;2.47;;;2.22;;
19593;SDS011;9944;48.240;16.478;2023-06-14T07:14:00;2.42;;;2.22;;
19593;SDS011;9944;48.240;16.478;2023-06-14T07:18:25;4.55;;;2.40;;
19593;SDS011;9944;48.240;16.478;2023-06-14T07:22:49;2.70;;;2.30;;
19593;SDS011;9944;48.240;16.478;2023-06-14T07:27:13;2.70;;;2.10;;
19593;SDS011;9944;48.240;16.478;2023-06-14T07:31:37;4.47;;;2.58;;
19593;SDS011;9944;48.240;16.478;2023-06-14T07:36:02;3.53;;;2.30;;
19593;SDS011;9944;48.240;16.478;2023-06-14T07:40:26;2.60;;;2.13;;
19593;SDS011;9944;48.240;16.478;2023-06-14T07:44:49;3.17;;;2.25;;
19593;SDS011;9944;48.240;16.478;2023-06-14T07:49:14;3.78;;;2.05;;
19593;SDS011;9944;48.240;16.478;2023-06-14T07:53:39;2.22;;;2.03;;
19593;SDS011;9944;48.240;16.478;2023-06-14T07:58:04;2.45;;;2.25;;
19593;SDS011;9944;48.240;16.478;2023-06-14T08:02:29;2.38;;;2.03;;
19593;SDS011;9944;48.240;16.478;2023-06-14T08:06:53;3.33;;;2.13;;
19593;SDS011;9944;48.240;16.478;2023-06-14T08:11:18;3.13;;;2.42;;
19593;SDS011;9944;48.240;16.478;2023-06-14T08:15:43;4.38;;;2.97;;
19593;SDS011;9944;48.240;16.478;2023-06-14T08:20:07;2.22;;;1.95;;
19593;SDS011;9944;48.240;16.478;2023-06-14T08:24:32;2.35;;;2.03;;
19593;SDS011;9944;48.240;16.478;2023-06-14T08:28:58;2.38;;;2.13;;
19593;SDS011;9944;48.240;16.478;2023-06-14T08:33:21;3.92;;;2.58;;
19593;SDS011;9944;48.240;16.478;2023-06-14T08:37:45;3.03;;;2.40;;
19593;SDS011;9944;48.240;16.478;2023-06-14T08:42:09;3.08;;;2.40;;
19593;SDS011;9944;48.240;16.478;2023-06-14T08:46:52;2.03;;;1.80;;
19593;SDS011;9944;48.240;16.478;2023-06-14T08:51:19;2.70;;;2.33;;
19593;SDS011;9944;48.240;16.478;2023-06-14T08:55:44;2.00;;;1.80;;
19593;SDS011;9944;48.240;16.478;2023-06-14T09:00:10;2.72;;;2.30;;
19593;SDS011;9944;48.240;16.478;2023-06-14T09:04:38;2.72;;;2.10;;
19593;SDS011;9944;48.240;16.478;2023-06-14T09:09:01;3.22;;;2.22;;
19593;SDS011;9944;48.240;16.478;2023-06-14T09:13:26;2.08;;;1.88;;
19593;SDS011;9944;48.240;16.478;2023-06-14T09:17:53;3.03;;;2.00;;
19593;SDS011;9944;48.240;16.478;2023-06-14T09:22:19;4.15;;;2.10;;
19593;SDS011;9944;48.240;16.478;2023-06-14T09:26:43;3.50;;;1.88;;
19593;SDS011;9944;48.240;16.478;2023-06-14T09:31:10;2.40;;;1.90;;
19593;SDS011;9944;48.240;16.478;2023-06-14T09:35:34;2.38;;;1.80;;
19593;SDS011;9944;48.240;16.478;2023-06-14T09:39:59;2.67;;;1.80;;
19593;SDS011;9944;48.240;16.478;2023-06-14T09:44:24;2.25;;;1.80;;
19593;SDS011;9944;48.240;16.478;2023-06-14T09:48:50;2.53;;;1.67;;
19593;SDS011;9944;48.240;16.478;2023-06-14T09:53:14;2.22;;;1.90;;
19593;SDS011;9944;48.240;16.478;2023-06-14T09:57:41;2.90;;;1.90;;
19593;SDS011;9944;48.240;16.478;2023-06-14T10:02:11;2.10;;;1.67;;
19593;SDS011;9944;48.240;16.478;2023-06-14T10:06:39;2.30;;;1.88;;
19593;SDS011;9944;48.240;16.478;2023-06-14T10:11:05;2.55;;;1.92;;
19593;SDS011;9944;48.240;16.478;2023-06-14T10:15:32;4.60;;;2.10;;
19593;SDS011;9944;48.240;16.478;2023-06-14T10:20:12;2.72;;;1.85;;
19593;SDS011;9944;48.240;16.478;2023-06-14T10:24:43;3.17;;;2.35;;
19593;SDS011;9944;48.240;16.478;2023-06-14T10:29:10;2.42;;;1.85;;
19593;SDS011;9944;48.240;16.478;2023-06-14T10:33:35;2.05;;;1.85;;
19593;SDS011;9944;48.240;16.478;2023-06-14T10:38:08;4.07;;;1.83;;
19593;SDS011;9944;48.240;16.478;2023-06-14T10:42:33;3.70;;;2.08;;
19593;SDS011;9944;48.240;16.478;2023-06-14T10:46:58;2.10;;;1.63;;
19593;SDS011;9944;48.240;16.478;2023-06-14T10:51:24;2.33;;;1.98;;
19593;SDS011;9944;48.240;16.478;2023-06-14T10:55:48;2.38;;;1.80;;
19593;SDS011;9944;48.240;16.478;2023-06-14T11:00:13;4.07;;;2.10;;
19593;SDS011;9944;48.240;16.478;2023-06-14T11:04:46;2.83;;;2.13;;
19593;SDS011;9944;48.240;16.478;2023-06-14T11:09:23;2.85;;;1.55;;
19593;SDS011;9944;48.240;16.478;2023-06-14T11:14:03;2.00;;;1.90;;
19593;SDS011;9944;48.240;16.478;2023-06-14T11:18:28;3.92;;;1.92;;
19593;SDS011;9944;48.240;16.478;2023-06-14T11:22:52;3.90;;;2.15;;
19593;SDS011;9944;48.240;16.478;2023-06-14T11:27:17;2.20;;;2.00;;
19593;SDS011;9944;48.240;16.478;2023-06-14T11:31:43;3.17;;;2.30;;
19593;SDS011;9944;48.240;16.478;2023-06-14T11:36:08;4.88;;;1.88;;
19593;SDS011;9944;48.240;16.478;2023-06-14T11:40:31;5.20;;;2.20;;
19593;SDS011;9944;48.240;16.478;2023-06-14T11:44:56;3.47;;;2.30;;
19593;SDS011;9944;48.240;16.478;2023-06-14T11:49:34;4.00;;;2.22;;
19593;SDS011;9944;48.240;16.478;2023-06-14T11:53:58;2.20;;;2.00;;
19593;SDS011;9944;48.240;16.478;2023-06-14T11:58:22;1.77;;;1.63;;
19593;SDS011;9944;48.240;16.478;2023-06-14T12:02:53;2.30;;;2.10;;
19593;SDS011;9944;48.240;16.478;2023-06-14T12:07:18;2.05;;;1.70;;
19593;SDS011;9944;48.240;16.478;2023-06-14T12:11:42;2.55;;;1.88;;
19593;SDS011;9944;48.240;16.478;2023-06-14T12:16:07;2.47;;;1.90;;
19593;SDS011;9944;48.240;16.478;2023-06-14T12:20:33;3.10;;;2.28;;
19593;SDS011;9944;48.240;16.478;2023-06-14T12:24:58;2.38;;;1.80;;
19593;SDS011;9944;48.240;16.478;2023-06-14T12:29:22;2.80;;;2.13;;
19593;SDS011;9944;48.240;16.478;2023-06-14T12:33:46;2.10;;;1.88;;
19593;SDS011;9944;48.240;16.478;2023-06-14T12:38:12;2.00;;;1.80;;
19593;SDS011;9944;48.240;16.478;2023-06-14T12:42:37;2.03;;;1.80;;
19593;SDS011;9944;48.240;16.478;2023-06-14T12:47:01;4.80;;;2.00;;
19593;SDS011;9944;48.240;16.478;2023-06-14T12:51:25;2.28;;;1.90;;
19593;SDS011;9944;48.240;16.478;2023-06-14T12:55:50;1.90;;;1.75;;
19593;SDS011;9944;48.240;16.478;2023-06-14T13:00:32;2.15;;;1.77;;
19593;SDS011;9944;48.240;16.478;2023-06-14T13:04:56;1.95;;;1.60;;
19593;SDS011;9944;48.240;16.478;2023-06-14T13:09:20;5.30;;;1.98;;
19593;SDS011;9944;48.240;16.478;2023-06-14T13:13:45;3.20;;;1.88;;
19593;SDS011;9944;48.240;16.478;2023-06-14T13:18:08;2.92;;;1.83;;
19593;SDS011;9944;48.240;16.478;2023-06-14T13:22:33;4.78;;;2.30;;
19593;SDS011;9944;48.240;16.478;2023-06-14T13:26:57;2.17;;;1.85;;
19593;SDS011;9944;48.240;16.478;2023-06-14T13:31:22;3.42;;;2.22;;
19593;SDS011;9944;48.240;16.478;2023-06-14T13:35:45;2.20;;;2.00;;
19593;SDS011;9944;48.240;16.478;2023-06-14T13:40:11;2.20;;;2.00;;
19593;SDS011;9944;48.240;16.478;2023-06-14T13:44:35;4.43;;;2.10;;
19593;SDS011;9944;48.240;16.478;2023-06-14T13:49:00;3.42;;;1.90;;
19593;SDS011;9944;48.240;16.478;2023-06-14T13:53:24;2.35;;;1.95;;
19593;SDS011;9944;48.240;16.478;2023-06-14T13:57:47;2.47;;;2.13;;
19593;SDS011;9944;48.240;16.478;2023-06-14T14:02:11;5.93;;;1.92;;
19593;SDS011;9944;48.240;16.478;2023-06-14T14:06:36;2.28;;;1.70;;
19593;SDS011;9944;48.240;16.478;2023-06-14T14:10:59;2.03;;;1.83;;
19593;SDS011;9944;48.240;16.478;2023-06-14T14:15:23;4.13;;;1.83;;
19593;SDS011;9944;48.240;16.478;2023-06-14T14:19:46;3.78;;;2.08;;
19593;SDS011;9944;48.240;16.478;2023-06-14T14:24:11;2.97;;;2.00;;
19593;SDS011;9944;48.240;16.478;2023-06-14T14:28:35;2.35;;;1.95;;
19593;SDS011;9944;48.240;16.478;2023-06-14T14:32:58;2.17;;;1.83;;
19593;SDS011;9944;48.240;16.478;2023-06-14T14:37:22;4.55;;;2.00;;
19593;SDS011;9944;48.240;16.478;2023-06-14T14:41:48;4.03;;;2.05;;
19593;SDS011;9944;48.240;16.478;2023-06-14T14:46:12;2.10;;;1.80;;
19593;SDS011;9944;48.240;16.478;2023-06-14T14:50:38;2.53;;;1.80;;
19593;SDS011;9944;48.240;16.478;2023-06-14T14:55:02;2.42;;;1.85;;
19593;SDS011;9944;48.240;16.478;2023-06-14T14:59:27;2.00;;;1.80;;
19593;SDS011;9944;48.240;16.478;2023-06-14T15:03:50;4.20;;;1.90;;
19593;SDS011;9944;48.240;16.478;2023-06-14T15:08:20;2.40;;;2.00;;
19593;SDS011;9944;48.240;16.478;2023-06-14T15:12:44;2.33;;;1.90;;
19593;SDS011;9944;48.240;16.478;2023-06-14T15:17:09;2.65;;;2.13;;
19593;SDS011;9944;48.240;16.478;2023-06-14T15:21:32;1.88;;;1.70;;
19593;SDS011;9944;48.240;16.478;2023-06-14T15:25:57;3.42;;;2.42;;
19593;SDS011;9944;48.240;16.478;2023-06-14T15:30:21;4.05;;;2.08;;
19593;SDS011;9944;48.240;16.478;2023-06-14T15:34:46;3.03;;;1.98;;
19593;SDS011;9944;48.240;16.478;2023-06-14T15:39:10;2.83;;;2.13;;
19593;SDS011;9944;48.240;16.478;2023-06-14T15:43:34;2.40;;;1.80;;
19593;SDS011;9944;48.240;16.478;2023-06-14T15:47:57;4.10;;;1.90;;
19593;SDS011;9944;48.240;16.478;2023-06-14T15:52:23;3.42;;;2.00;;
19593;SDS011;9944;48.240;16.478;2023-06-14T15:56:46;2.72;;;2.10;;
19593;SDS011;9944;48.240;16.478;2023-06-14T16:01:10;3.58;;;2.13;;
19593;SDS011;9944;48.240;16.478;2023-06-14T16:05:33;3.05;;;1.88;;
19593;SDS011;9944;48.240;16.478;2023-06-14T16:09:58;5.03;;;2.17;;
19593;SDS011;9944;48.240;16.478;2023-06-14T16:14:22;2.58;;;1.90;;
19593;SDS011;9944;48.240;16.478;2023-06-14T16:18:45;2.60;;;2.20;;
19593;SDS011;9944;48.240;16.478;2023-06-14T16:23:09;2.50;;;2.15;;
19593;SDS011;9944;48.240;16.478;2023-06-14T16:27:34;2.63;;;2.00;;
19593;SDS011;9944;48.240;16.478;2023-06-14T16:31:57;4.05;;;2.40;;
19593;SDS011;9944;48.240;16.478;2023-06-14T16:36:21;2.97;;;2.35;;
19593;SDS011;9944;48.240;16.478;2023-06-14T16:40:45;3.90;;;2.35;;
19593;SDS011;9944;48.240;16.478;2023-06-14T16:45:10;2.90;;;2.40;;
19593;SDS011;9944;48.240;16.478;2023-06-14T16:49:34;2.42;;;2.08;;
19593;SDS011;9944;48.240;16.478;2023-06-14T16:53:57;2.20;;;2.00;;
19593;SDS011;9944;48.240;16.478;2023-06-14T16:58:21;3.83;;;2.30;;
19593;SDS011;9944;48.240;16.478;2023-06-14T17:02:46;3.03;;;2.20;;
19593;SDS011;9944;48.240;16.478;2023-06-14T17:07:12;2.67;;;2.25;;
19593;SDS011;9944;48.240;16.478;2023-06-14T17:11:35;2.47;;;2.28;;
19593;SDS011;9944;48.240;16.478;2023-06-14T17:15:58;2.33;;;2.10;;
19593;SDS011;9944;48.240;16.478;2023-06-14T17:20:24;2.45;;;2.03;;
19593;SDS011;9944;48.240;16.478;2023-06-14T17:24:48;2.95;;;2.20;;
19593;SDS011;9944;48.240;16.478;2023-06-14T17:29:12;3.13;;;2.42;;
19593;SDS011;9944;48.240;16.478;2023-06-14T17:33:35;3.03;;;2.40;;
19593;SDS011;9944;48.240;16.478;2023-06-14T17:38:00;4.13;;;2.45;;
19593;SDS011;9944;48.240;16.478;2023-06-14T17:42:24;3.47;;;2.30;;
19593;SDS011;9944;48.240;16.478;2023-06-14T17:46:48;2.65;;;2.40;;
19593;SDS011;9944;48.240;16.478;2023-06-14T17:51:11;2.83;;;2.40;;
19593;SDS011;9944;48.240;16.478;2023-06-14T17:55:36;3.13;;;2.50;;
19593;SDS011;9944;48.240;16.478;2023-06-14T17:59:59;4.97;;;2.78;;
19593;SDS011;9944;48.240;16.478;2023-06-14T18:04:32;2.90;;;2.50;;
19593;SDS011;9944;48.240;16.478;2023-06-14T18:08:56;2.72;;;2.35;;
19593;SDS011;9944;48.240;16.478;2023-06-14T18:13:21;2.95;;;2.30;;
19593;SDS011;9944;48.240;16.478;2023-06-14T18:17:44;4.88;;;2.33;;
19593;SDS011;9944;48.240;16.478;2023-06-14T18:22:08;3.40;;;2.50;;
19593;SDS011;9944;48.240;16.478;2023-06-14T18:26:31;2.63;;;2.15;;
19593;SDS011;9944;48.240;16.478;2023-06-14T18:30:56;2.75;;;2.40;;
19593;SDS011;9944;48.240;16.478;2023-06-14T18:35:20;3.25;;;2.35;;
19593;SDS011;9944;48.240;16.478;2023-06-14T18:39:44;4.03;;;2.63;;
19593;SDS011;9944;48.240;16.478;2023-06-14T18:44:08;3.28;;;2.10;;
19593;SDS011;9944;48.240;16.478;2023-06-14T18:48:33;3.30;;;2.35;;
19593;SDS011;9944;48.240;16.478;2023-06-14T18:52:56;2.83;;;2.20;;
19593;SDS011;9944;48.240;16.478;2023-06-14T18:57:20;3.30;;;2.30;;
19593;SDS011;9944;48.240;16.478;2023-06-14T19:01:43;3.50;;;2.38;;
19593;SDS011;9944;48.240;16.478;2023-06-14T19:06:08;2.78;;;2.40;;
19593;SDS011;9944;48.240;16.478;2023-06-14T19:10:32;3.10;;;2.30;;
19593;SDS011;9944;48.240;16.478;2023-06-14T19:14:55;3.25;;;2.78;;
19593;SDS011;9944;48.240;16.478;2023-06-14T19:19:19;2.30;;;1.95;;
19593;SDS011;9944;48.240;16.478;2023-06-14T19:23:44;9.60;;;2.33;;
19593;SDS011;9944;48.240;16.478;2023-06-14T19:28:07;3.83;;;2.22;;
19593;SDS011;9944;48.240;16.478;2023-06-14T19:32:31;2.45;;;2.10;;
19593;SDS011;9944;48.240;16.478;2023-06-14T19:36:55;2.80;;;2.20;;
19593;SDS011;9944;48.240;16.478;2023-06-14T19:41:20;2.53;;;2.10;;
19593;SDS011;9944;48.240;16.478;2023-06-14T19:45:44;2.45;;;2.25;;
19593;SDS011;9944;48.240;16.478;2023-06-14T19:50:07;4.03;;;2.40;;
19593;SDS011;9944;48.240;16.478;2023-06-14T19:54:31;3.65;;;2.45;;
19593;SDS011;9944;48.240;16.478;2023-06-14T19:58:56;3.38;;;2.47;;
19593;SDS011;9944;48.240;16.478;2023-06-14T20:03:19;3.60;;;2.55;;
19593;SDS011;9944;48.240;16.478;2023-06-14T20:07:43;2.65;;;2.22;;
19593;SDS011;9944;48.240;16.478;2023-06-14T20:12:06;3.22;;;2.47;;
19593;SDS011;9944;48.240;16.478;2023-06-14T20:16:32;2.83;;;2.30;;
19593;SDS011;9944;48.240;16.478;2023-06-14T20:20:55;3.08;;;2.50;;
19593;SDS011;9944;48.240;16.478;2023-06-14T20:25:19;3.33;;;2.45;;
19593;SDS011;9944;48.240;16.478;2023-06-14T20:29:42;4.20;;;2.47;;
19593;SDS011;9944;48.240;16.478;2023-06-14T20:34:07;3.33;;;2.90;;
19593;SDS011;9944;48.240;16.478;2023-06-14T20:38:30;3.20;;;2.90;;
19593;SDS011;9944;48.240;16.478;2023-06-14T20:42:54;3.95;;;2.42;;
19593;SDS011;9944;48.240;16.478;2023-06-14T20:47:19;3.22;;;2.65;;
19593;SDS011;9944;48.240;16.478;2023-06-14T20:51:44;3.83;;;2.85;;
19593;SDS011;9944;48.240;16.478;2023-06-14T20:56:08;3.40;;;2.80;;
19593;SDS011;9944;48.240;16.478;2023-06-14T21:00:32;3.78;;;2.70;;
19593;SDS011;9944;48.240;16.478;2023-06-14T21:04:57;3.13;;;2.47;;
19593;SDS011;9944;48.240;16.478;2023-06-14T21:09:22;3.25;;;2.35;;
19593;SDS011;9944;48.240;16.478;2023-06-14T21:13:46;4.80;;;2.92;;
19593;SDS011;9944;48.240;16.478;2023-06-14T21:18:09;3.72;;;2.80;;
19593;SDS011;9944;48.240;16.478;2023-06-14T21:22:33;4.45;;;3.03;;
19593;SDS011;9944;48.240;16.478;2023-06-14T21:26:58;3.38;;;2.65;;
19593;SDS011;9944;48.240;16.478;2023-06-14T21:31:22;3.63;;;3.00;;
19593;SDS011;9944;48.240;16.478;2023-06-14T21:35:45;4.13;;;2.70;;
19593;SDS011;9944;48.240;16.478;2023-06-14T21:40:09;3.83;;;2.55;;
19593;SDS011;9944;48.240;16.478;2023-06-14T21:44:38;4.05;;;3.20;;
19593;SDS011;9944;48.240;16.478;2023-06-14T21:49:03;5.13;;;2.85;;
19593;SDS011;9944;48.240;16.478;2023-06-14T21:53:26;4.63;;;3.10;;
19593;SDS011;9944;48.240;16.478;2023-06-14T21:57:53;4.85;;;3.22;;
19593;SDS011;9944;48.240;16.478;2023-06-14T22:02:18;3.95;;;3.33;;
19593;SDS011;9944;48.240;16.478;2023-06-14T22:06:42;4.10;;;2.92;;
19593;SDS011;9944;48.240;16.478;2023-06-14T22:11:07;4.30;;;3.45;;
19593;SDS011;9944;48.240;16.478;2023-06-14T22:15:31;5.60;;;3.55;;
19593;SDS011;9944;48.240;16.478;2023-06-14T22:19:57;5.10;;;3.47;;
19593;SDS011;9944;48.240;16.478;2023-06-14T22:24:20;5.97;;;3.63;;
19593;SDS011;9944;48.240;16.478;2023-06-14T22:28:44;5.05;;;3.42;;
19593;SDS011;9944;48.240;16.478;2023-06-14T22:33:10;5.50;;;3.25;;
19593;SDS011;9944;48.240;16.478;2023-06-14T22:37:36;3.88;;;3.30;;
19593;SDS011;9944;48.240;16.478;2023-06-14T22:41:59;4.78;;;3.35;;
19593;SDS011;9944;48.240;16.478;2023-06-14T22:46:28;4.70;;;3.55;;
19593;SDS011;9944;48.240;16.478;2023-06-14T22:50:52;4.05;;;3.28;;
19593;SDS011;9944;48.240;16.478;2023-06-14T22:55:17;4.75;;;3.13;;
19593;SDS011;9944;48.240;16.478;2023-06-14T22:59:41;5.05;;;3.42;;
19593;SDS011;9944;48.240;16.478;2023-06-14T23:04:05;7.45;;;3.45;;
19593;SDS011;9944;48.240;16.478;2023-06-14T23:08:28;3.60;;;3.13;;
19593;SDS011;9944;48.240;16.478;2023-06-14T23:12:54;4.40;;;3.50;;
19593;SDS011;9944;48.240;16.478;2023-06-14T23:17:19;3.55;;;3.00;;
19593;SDS011;9944;48.240;16.478;2023-06-14T23:21:42;3.50;;;2.78;;
19593;SDS011;9944;48.240;16.478;2023-06-14T23:26:08;3.50;;;2.72;;
19593;SDS011;9944;48.240;16.478;2023-06-14T23:30:33;4.10;;;2.80;;
19593;SDS011;9944;48.240;16.478;2023-06-14T23:34:57;4.72;;;2.83;;
19593;SDS011;9944;48.240;16.478;2023-06-14T23:39:21;4.88;;;2.90;;
19593;SDS011;9944;48.240;16.478;2023-06-14T23:43:44;4.65;;;2.85;;
19593;SDS011;9944;48.240;16.478;2023-06-14T23:48:12;4.57;;;2.85;;
19593;SDS011;9944;48.240;16.478;2023-06-14T23:52:35;6.22;;;3.08;;
19593;SDS011;9944;48.240;16.478;2023-06-14T23:56:59;5.43;;;3.17;;
